createdAt,value
2022-12-13T00:01:53.263Z,0.02
2022-12-13T00:04:21.907Z,0.00
2022-12-13T00:06:49.510Z,-0.04
2022-12-13T00:09:18.505Z,-0.09
2022-12-13T00:11:45.775Z,-0.18
2022-12-13T00:14:14.284Z,-0.21
2022-12-13T00:16:45.680Z,-0.25
2022-12-13T00:19:12.762Z,-0.30
2022-12-13T00:21:39.485Z,-0.35
2022-12-13T00:24:07.942Z,-0.41
2022-12-13T00:26:34.936Z,-0.43
2022-12-13T00:29:03.978Z,-0.41
2022-12-13T00:34:21.219Z,-0.35
2022-12-13T00:36:48.730Z,-0.34
2022-12-13T00:39:16.793Z,-0.31
2022-12-13T00:41:44.919Z,-0.27
2022-12-13T00:44:12.942Z,-0.23
2022-12-13T00:46:41.221Z,-0.21
2022-12-13T00:49:09.760Z,-0.18
2022-12-13T00:51:36.591Z,-0.17
2022-12-13T00:54:03.845Z,-0.16
2022-12-13T00:56:32.804Z,-0.13
2022-12-13T00:58:59.725Z,-0.11
2022-12-13T01:01:29.761Z,-0.09
2022-12-13T01:03:58.843Z,-0.09
2022-12-13T01:06:35.964Z,-0.14
2022-12-13T01:09:04.577Z,-0.13
2022-12-13T01:11:31.438Z,-0.11
2022-12-13T01:13:58.078Z,-0.13
2022-12-13T01:16:24.796Z,-0.13
2022-12-13T01:18:51.542Z,-0.10
2022-12-13T01:21:20.858Z,-0.09
2022-12-13T01:23:49.212Z,-0.09
2022-12-13T01:26:18.603Z,-0.10
2022-12-13T01:28:45.322Z,-0.08
2022-12-13T01:31:15.695Z,-0.06
2022-12-13T01:33:43.292Z,-0.03
2022-12-13T01:36:14.133Z,-0.02
2022-12-13T01:38:40.957Z,-0.01
2022-12-13T01:41:16.927Z,0.02
2022-12-13T01:43:44.616Z,0.03
2022-12-13T01:46:12.234Z,0.05
2022-12-13T01:48:47.587Z,0.06
2022-12-13T01:51:17.503Z,0.10
2022-12-13T01:53:47.056Z,0.13
2022-12-13T01:56:21.380Z,0.16
2022-12-13T01:58:50.462Z,0.18
2022-12-13T02:01:18.268Z,0.19
2022-12-13T02:03:45.881Z,0.21
2022-12-13T02:06:17.298Z,0.24
2022-12-13T02:08:45.749Z,0.26
2022-12-13T02:11:14.025Z,0.26
2022-12-13T02:13:40.741Z,0.26
2022-12-13T02:16:10.468Z,0.27
2022-12-13T02:19:12.810Z,0.28
2022-12-13T02:22:00.425Z,0.28
2022-12-13T02:24:35.847Z,0.27
2022-12-13T02:27:42.605Z,0.23
2022-12-13T02:30:19.603Z,0.22
2022-12-13T02:33:21.262Z,0.18
2022-12-13T02:35:55.317Z,0.16
2022-12-13T02:38:26.248Z,0.13
2022-12-13T02:41:17.044Z,0.11
2022-12-13T02:44:01.766Z,0.08
2022-12-13T02:46:33.207Z,0.03
2022-12-13T02:49:00.780Z,-0.01
2022-12-13T02:51:28.780Z,-0.05
2022-12-13T02:53:55.508Z,-0.08
2022-12-13T02:56:22.156Z,-0.13
2022-12-13T02:58:53.325Z,-0.15
2022-12-13T03:01:39.962Z,-0.18
2022-12-13T03:04:30.409Z,-0.22
2022-12-13T03:07:23.830Z,-0.23
2022-12-13T03:10:06.631Z,-0.27
2022-12-13T03:13:08.476Z,-0.28
2022-12-13T03:15:53.420Z,-0.34
2022-12-13T03:18:22.376Z,-0.39
2022-12-13T03:21:02.506Z,-0.43
2022-12-13T03:23:29.607Z,-0.46
2022-12-13T03:26:03.193Z,-0.46
2022-12-13T03:28:29.848Z,-0.50
2022-12-13T03:30:56.547Z,-0.48
2022-12-13T03:33:23.870Z,-0.47
2022-12-13T03:35:51.086Z,-0.46
2022-12-13T03:38:22.153Z,-0.48
2022-12-13T03:40:55.937Z,-0.51
2022-12-13T03:43:23.356Z,-0.48
2022-12-13T03:45:51.701Z,-0.50
2022-12-13T03:48:22.745Z,-0.55
2022-12-13T03:50:50.438Z,-0.56
2022-12-13T03:53:22.051Z,-0.57
2022-12-13T03:55:50.508Z,-0.59
2022-12-13T03:58:17.252Z,-0.61
2022-12-13T04:00:44.304Z,-0.61
2022-12-13T04:03:11.208Z,-0.58
2022-12-13T04:05:37.971Z,-0.57
2022-12-13T04:08:05.277Z,-0.55
2022-12-13T04:10:48.847Z,-0.53
2022-12-13T04:13:33.777Z,-0.52
2022-12-13T04:16:02.178Z,-0.53
2022-12-13T04:18:29.192Z,-0.49
2022-12-13T04:20:57.474Z,-0.42
2022-12-13T04:23:25.392Z,-0.41
2022-12-13T04:25:52.002Z,-0.37
2022-12-13T04:28:22.713Z,-0.34
2022-12-13T04:30:53.159Z,-0.31
2022-12-13T04:33:22.434Z,-0.27
2022-12-13T04:35:49.641Z,-0.23
2022-12-13T04:38:16.350Z,-0.21
2022-12-13T04:40:43.064Z,-0.18
2022-12-13T04:43:09.926Z,-0.14
2022-12-13T04:45:36.595Z,-0.12
2022-12-13T04:48:03.496Z,-0.10
2022-12-13T04:50:30.179Z,-0.07
2022-12-13T04:52:56.784Z,-0.04
2022-12-13T04:55:23.419Z,-0.02
2022-12-13T04:57:50.004Z,0.02
2022-12-13T05:00:17.252Z,0.04
2022-12-13T05:02:44.064Z,0.05
2022-12-13T05:05:11.469Z,0.06
2022-12-13T05:07:41.881Z,0.06
2022-12-13T05:10:09.622Z,0.08
2022-12-13T05:12:36.253Z,0.08
2022-12-13T05:15:03.063Z,0.10
2022-12-13T05:17:29.720Z,0.13
2022-12-13T05:19:56.395Z,0.16
2022-12-13T05:22:23.071Z,0.17
2022-12-13T05:24:49.928Z,0.20
2022-12-13T05:27:23.797Z,0.24
2022-12-13T05:29:59.309Z,0.25
2022-12-13T05:32:43.250Z,0.28
2022-12-13T05:35:13.786Z,0.30
2022-12-13T05:37:41.114Z,0.32
2022-12-13T05:40:08.808Z,0.32
2022-12-13T05:42:38.050Z,0.34
2022-12-13T05:45:07.342Z,0.37
2022-12-13T05:47:34.020Z,0.37
2022-12-13T05:50:00.743Z,0.38
2022-12-13T05:52:30.610Z,0.38
2022-12-13T05:55:01.145Z,0.39
2022-12-13T05:57:28.337Z,0.40
2022-12-13T05:59:55.283Z,0.43
2022-12-13T06:02:22.340Z,0.44
2022-12-13T06:04:49.190Z,0.46
2022-12-13T06:07:15.915Z,0.47
2022-12-13T06:09:43.216Z,0.47
2022-12-13T06:12:30.865Z,0.47
2022-12-13T06:15:01.372Z,0.47
2022-12-13T06:17:37.182Z,0.47
2022-12-13T06:20:24.433Z,0.48
2022-12-13T06:22:52.794Z,0.50
2022-12-13T06:25:31.064Z,0.52
2022-12-13T06:28:01.336Z,0.52
2022-12-13T06:30:29.577Z,0.52
2022-12-13T06:32:56.810Z,0.52
2022-12-13T06:35:28.582Z,0.52
2022-12-13T06:38:01.085Z,0.52
2022-12-13T06:40:29.143Z,0.53
2022-12-13T06:42:55.928Z,0.51
2022-12-13T06:45:22.730Z,0.52
2022-12-13T06:47:49.371Z,0.52
2022-12-13T06:50:17.275Z,0.51
2022-12-13T06:52:46.594Z,0.52
2022-12-13T06:55:13.712Z,0.52
2022-12-13T06:57:40.950Z,0.52
2022-12-13T07:00:09.334Z,0.52
2022-12-13T07:02:36.300Z,0.55
2022-12-13T07:05:03.173Z,0.55
2022-12-13T07:07:29.982Z,0.56
2022-12-13T07:09:56.845Z,0.57
2022-12-13T07:12:23.822Z,0.59
2022-12-13T07:14:50.689Z,0.60
2022-12-13T07:17:32.495Z,0.61
2022-12-13T07:20:03.589Z,0.60
2022-12-13T07:22:34.959Z,0.62
2022-12-13T07:25:05.184Z,0.63
2022-12-13T07:27:32.429Z,0.64
2022-12-13T07:29:59.328Z,0.64
2022-12-13T07:32:26.127Z,0.64
2022-12-13T07:34:53.059Z,0.64
2022-12-13T07:37:30.447Z,0.65
2022-12-13T07:40:03.383Z,0.65
2022-12-13T07:42:31.050Z,0.67
2022-12-13T07:44:57.786Z,0.70
2022-12-13T07:47:29.448Z,0.69
2022-12-13T07:49:56.342Z,0.67
2022-12-13T07:52:23.223Z,0.68
2022-12-13T07:54:50.453Z,0.69
2022-12-13T07:57:17.108Z,0.71
2022-12-13T07:59:43.761Z,0.75
2022-12-13T08:02:13.393Z,0.78
2022-12-13T08:04:41.955Z,0.82
2022-12-13T08:07:09.302Z,0.84
2022-12-13T08:09:36.248Z,0.87
2022-12-13T08:12:03.750Z,0.87
2022-12-13T08:14:30.404Z,0.89
2022-12-13T08:16:57.488Z,0.90
2022-12-13T08:19:24.390Z,0.91
2022-12-13T08:21:56.627Z,0.95
2022-12-13T08:24:26.651Z,0.97
2022-12-13T08:26:53.305Z,1.03
2022-12-13T08:29:23.461Z,1.09
2022-12-13T08:32:10.611Z,1.15
2022-12-13T08:34:37.810Z,1.19
2022-12-13T08:37:04.998Z,1.22
2022-12-13T08:39:35.659Z,1.23
2022-12-13T08:42:14.996Z,1.24
2022-12-13T08:44:48.397Z,1.24
2022-12-13T08:47:23.771Z,1.25
2022-12-13T08:49:53.727Z,1.29
2022-12-13T08:52:22.843Z,1.32
2022-12-13T08:54:49.792Z,1.32
2022-12-13T08:57:16.547Z,1.30
2022-12-13T08:59:43.197Z,1.28
2022-12-13T09:02:13.420Z,1.28
2022-12-13T09:04:40.143Z,1.27
2022-12-13T09:07:06.782Z,1.28
2022-12-13T09:09:33.546Z,1.29
2022-12-13T09:12:00.292Z,1.31
2022-12-13T09:14:33.926Z,1.33
2022-12-13T09:17:03.336Z,1.34
2022-12-13T09:19:36.672Z,1.36
2022-12-13T09:22:05.068Z,1.36
2022-12-13T09:24:35.751Z,1.36
2022-12-13T09:27:02.749Z,1.36
2022-12-13T09:29:36.955Z,1.35
2022-12-13T09:32:03.897Z,1.37
2022-12-13T09:34:30.645Z,1.36
2022-12-13T09:37:01.505Z,1.36
2022-12-13T09:39:29.372Z,1.37
2022-12-13T09:42:01.027Z,1.39
2022-12-13T09:44:46.625Z,1.43
2022-12-13T09:47:27.088Z,1.44
2022-12-13T09:50:08.298Z,1.45
2022-12-13T09:52:43.121Z,1.48
2022-12-13T09:55:23.181Z,1.52
2022-12-13T09:57:51.517Z,1.55
2022-12-13T10:00:23.895Z,1.55
2022-12-13T10:03:00.546Z,1.56
2022-12-13T10:05:39.154Z,1.59
2022-12-13T10:08:13.177Z,1.62
2022-12-13T10:10:40.076Z,1.65
2022-12-13T10:13:32.895Z,1.68
2022-12-13T10:16:03.735Z,1.70
2022-12-13T10:18:39.048Z,1.72
2022-12-13T10:21:11.924Z,1.72
2022-12-13T10:24:15.294Z,1.74
2022-12-13T10:26:25.455Z,1.76
2022-12-13T10:29:03.047Z,1.81
2022-12-13T10:31:29.848Z,1.87
2022-12-13T10:33:57.472Z,1.92
2022-12-13T10:36:33.858Z,1.99
2022-12-13T10:39:02.729Z,2.01
2022-12-13T10:41:31.268Z,1.98
2022-12-13T10:44:30.578Z,1.98
2022-12-13T10:47:17.273Z,1.98
2022-12-13T10:49:59.007Z,1.95
2022-12-13T10:52:43.561Z,1.93
2022-12-13T10:55:36.130Z,1.94
2022-12-13T10:58:09.761Z,1.91
2022-12-13T11:00:45.385Z,1.94
2022-12-13T11:03:33.513Z,1.96
2022-12-13T11:06:18.484Z,1.99
2022-12-13T11:08:45.107Z,2.04
2022-12-13T11:11:12.479Z,2.10
2022-12-13T11:13:46.342Z,2.16
2022-12-13T11:16:21.943Z,2.24
2022-12-13T11:18:54.236Z,2.28
2022-12-13T11:21:26.639Z,2.30
2022-12-13T11:23:54.490Z,2.31
2022-12-13T11:26:24.488Z,2.32
2022-12-13T11:28:58.255Z,2.35
2022-12-13T11:31:43.823Z,2.38
2022-12-13T11:34:16.426Z,2.38
2022-12-13T11:37:03.151Z,2.39
2022-12-13T11:39:37.115Z,2.43
2022-12-13T11:42:18.663Z,2.44
2022-12-13T11:45:04.086Z,2.45
2022-12-13T11:47:46.532Z,2.47
2022-12-13T11:50:33.592Z,2.46
2022-12-13T11:53:29.792Z,2.45
2022-12-13T11:55:59.906Z,2.45
2022-12-13T11:59:02.653Z,2.47
2022-12-13T12:01:44.063Z,2.48
2022-12-13T12:04:20.067Z,2.48
2022-12-13T12:06:55.713Z,2.51
2022-12-13T12:09:25.310Z,2.50
2022-12-13T12:12:03.037Z,2.51
2022-12-13T12:14:32.313Z,2.52
2022-12-13T12:16:59.622Z,2.52
2022-12-13T12:19:41.985Z,2.51
2022-12-13T12:22:15.355Z,2.51
2022-12-13T12:24:48.609Z,2.52
2022-12-13T12:27:34.113Z,2.52
2022-12-13T12:30:23.329Z,2.53
2022-12-13T12:32:54.952Z,2.54
2022-12-13T12:35:38.152Z,2.59
2022-12-13T12:38:27.627Z,2.59
2022-12-13T12:41:20.884Z,2.64
2022-12-13T12:43:54.625Z,2.66
2022-12-13T12:46:26.935Z,2.71
2022-12-13T12:49:24.720Z,2.76
2022-12-13T12:52:15.948Z,2.81
2022-12-13T12:55:03.244Z,2.84
2022-12-13T12:57:47.806Z,2.84
2022-12-13T13:00:20.370Z,2.84
2022-12-13T13:03:22.674Z,2.85
2022-12-13T13:06:02.107Z,2.87
2022-12-13T13:08:50.202Z,2.90
2022-12-13T13:11:24.525Z,2.95
2022-12-13T13:14:01.760Z,3.00
2022-12-13T13:16:40.363Z,3.03
2022-12-13T13:19:12.781Z,3.06
2022-12-13T13:21:47.313Z,3.08
2022-12-13T13:24:18.975Z,3.08
2022-12-13T13:26:51.281Z,3.04
2022-12-13T13:29:27.512Z,3.03
2022-12-13T13:32:12.305Z,3.03
2022-12-13T13:34:50.012Z,3.04
2022-12-13T13:37:20.935Z,3.04
2022-12-13T13:39:59.003Z,3.02
2022-12-13T13:42:29.117Z,3.01
2022-12-13T13:45:03.565Z,3.02
2022-12-13T13:47:39.181Z,3.03
2022-12-13T13:50:08.806Z,3.02
2022-12-13T13:52:44.775Z,3.01
2022-12-13T13:55:32.812Z,2.98
2022-12-13T13:58:11.812Z,2.97
2022-12-13T14:01:32.675Z,2.93
2022-12-13T14:04:38.072Z,2.91
2022-12-13T14:07:35.472Z,2.86
2022-12-13T14:10:22.382Z,2.80
2022-12-13T14:12:55.359Z,2.76
2022-12-13T14:15:27.653Z,2.70
2022-12-13T14:18:07.368Z,2.64
2022-12-13T14:20:56.294Z,2.60
2022-12-13T14:23:37.356Z,2.57
2022-12-13T14:26:17.928Z,2.53
2022-12-13T14:28:50.760Z,2.51
2022-12-13T14:31:41.952Z,2.46
2022-12-13T14:34:26.516Z,2.40
2022-12-13T14:37:01.025Z,2.34
2022-12-13T14:39:34.143Z,2.32
2022-12-13T14:42:17.830Z,2.28
2022-12-13T14:44:44.561Z,2.23
2022-12-13T14:47:12.076Z,2.19
2022-12-13T14:49:42.003Z,2.16
2022-12-13T14:52:29.216Z,2.12
2022-12-13T14:54:59.387Z,2.09
2022-12-13T14:57:29.004Z,2.07
2022-12-13T14:59:57.471Z,2.05
2022-12-13T15:02:30.766Z,2.04
2022-12-13T15:05:01.345Z,2.03
2022-12-13T15:07:35.872Z,2.01
2022-12-13T15:10:19.168Z,2.01
2022-12-13T15:12:46.982Z,2.02
2022-12-13T15:15:31.439Z,2.05
2022-12-13T15:18:10.113Z,2.08
2022-12-13T15:20:41.452Z,2.11
2022-12-13T15:23:29.972Z,2.13
2022-12-13T15:26:27.658Z,2.16
2022-12-13T15:29:09.406Z,2.20
2022-12-13T15:31:38.100Z,2.22
2022-12-13T15:34:30.841Z,2.24
2022-12-13T15:37:00.988Z,2.26
2022-12-13T15:39:28.721Z,2.27
2022-12-13T15:41:56.101Z,2.26
2022-12-13T15:44:30.389Z,2.24
2022-12-13T15:47:28.268Z,2.21
2022-12-13T15:50:04.934Z,2.23
2022-12-13T15:52:33.275Z,2.23
2022-12-13T15:55:06.788Z,2.25
2022-12-13T15:57:36.139Z,2.27
2022-12-13T16:00:17.666Z,2.28
2022-12-13T16:03:01.410Z,2.30
2022-12-13T16:05:38.527Z,2.34
2022-12-13T16:08:14.198Z,2.35
2022-12-13T16:10:47.990Z,2.38
2022-12-13T16:13:26.435Z,2.40
2022-12-13T16:16:00.362Z,2.41
2022-12-13T16:18:51.592Z,2.42
2022-12-13T16:21:18.395Z,2.44
2022-12-13T16:23:48.332Z,2.44
2022-12-13T16:26:21.871Z,2.45
2022-12-13T16:28:48.602Z,2.47
2022-12-13T16:31:26.360Z,2.50
2022-12-13T16:33:53.224Z,2.52
2022-12-13T16:36:20.044Z,2.52
2022-12-13T16:38:46.736Z,2.51
2022-12-13T16:41:14.816Z,2.51
2022-12-13T16:44:02.537Z,2.53
2022-12-13T16:47:15.083Z,2.54
2022-12-13T16:49:22.413Z,2.53
2022-12-13T16:51:49.573Z,2.56
2022-12-13T16:54:18.210Z,2.57
2022-12-13T16:56:45.100Z,2.59
2022-12-13T16:59:16.910Z,2.60
2022-12-13T17:01:45.353Z,2.62
2022-12-13T17:04:20.069Z,2.62
2022-12-13T17:06:47.809Z,2.63
2022-12-13T17:09:14.595Z,2.63
2022-12-13T17:11:41.561Z,2.61
2022-12-13T17:14:08.764Z,2.61
2022-12-13T17:16:35.496Z,2.62
2022-12-13T17:19:02.516Z,2.64
2022-12-13T17:21:29.879Z,2.65
2022-12-13T17:24:01.460Z,2.66
2022-12-13T17:26:29.301Z,2.66
2022-12-13T17:28:56.156Z,2.65
2022-12-13T17:31:23.006Z,2.64
2022-12-13T17:33:49.772Z,2.63
2022-12-13T17:36:17.226Z,2.61
2022-12-13T17:38:45.848Z,2.59
2022-12-13T17:41:13.744Z,2.59
2022-12-13T17:43:41.081Z,2.58
2022-12-13T17:46:12.302Z,2.58
2022-12-13T17:48:41.002Z,2.58
2022-12-13T17:51:10.254Z,2.53
2022-12-13T17:53:39.587Z,2.45
2022-12-13T17:56:12.237Z,2.36
2022-12-13T17:58:39.322Z,2.27
2022-12-13T18:01:16.235Z,2.17
2022-12-13T18:03:43.274Z,2.11
2022-12-13T18:06:10.646Z,2.10
2022-12-13T18:08:39.611Z,2.10
2022-12-13T18:13:55.535Z,2.08
2022-12-13T18:16:28.912Z,2.08
2022-12-13T18:19:01.110Z,2.06
2022-12-13T18:21:27.766Z,2.01
2022-12-13T18:23:56.123Z,1.94
2022-12-13T18:26:24.606Z,1.86
2022-12-13T18:28:52.080Z,1.78
2022-12-13T18:31:22.200Z,1.67
2022-12-13T18:33:50.761Z,1.60
2022-12-13T18:36:18.268Z,1.55
2022-12-13T18:38:45.763Z,1.50
2022-12-13T18:41:16.508Z,1.44
2022-12-13T18:43:44.368Z,1.39
2022-12-13T18:46:12.636Z,1.32
2022-12-13T18:48:39.614Z,1.29
2022-12-13T18:51:10.130Z,1.26
2022-12-13T18:53:38.954Z,1.22
2022-12-13T18:56:17.837Z,1.19
2022-12-13T18:58:50.568Z,1.18
2022-12-13T19:01:18.745Z,1.18
2022-12-13T19:03:48.040Z,1.16
2022-12-13T19:06:21.126Z,1.15
2022-12-13T19:08:49.367Z,1.12
2022-12-13T19:11:16.252Z,1.09
2022-12-13T19:13:43.313Z,1.05
2022-12-13T19:16:12.646Z,1.03
2022-12-13T19:18:39.335Z,0.97
2022-12-13T19:21:08.512Z,0.93
2022-12-13T19:23:35.610Z,0.91
2022-12-13T19:26:08.411Z,0.85
2022-12-13T19:28:35.152Z,0.82
2022-12-13T19:31:05.741Z,0.82
2022-12-13T19:33:33.048Z,0.83
2022-12-13T19:36:00.110Z,0.86
2022-12-13T19:38:26.952Z,0.89
2022-12-13T19:40:53.574Z,0.91
2022-12-13T19:43:22.970Z,0.91
2022-12-13T19:45:52.324Z,0.90
2022-12-13T19:48:19.012Z,0.92
2022-12-13T19:50:45.765Z,0.93
2022-12-13T19:53:12.433Z,0.92
2022-12-13T19:55:45.636Z,0.95
2022-12-13T19:58:15.142Z,0.99
2022-12-13T20:00:41.802Z,1.03
2022-12-13T20:03:08.613Z,1.07
2022-12-13T20:05:36.143Z,1.11
2022-12-13T20:08:02.994Z,1.15
2022-12-13T20:10:29.667Z,1.18
2022-12-13T20:12:56.578Z,1.22
2022-12-13T20:15:23.431Z,1.25
2022-12-13T20:17:51.727Z,1.29
2022-12-13T20:20:19.854Z,1.32
2022-12-13T20:22:48.552Z,1.35
2022-12-13T20:25:15.354Z,1.36
2022-12-13T20:27:44.172Z,1.40
2022-12-13T20:30:11.416Z,1.43
2022-12-13T20:32:38.101Z,1.45
2022-12-13T20:35:05.251Z,1.48
2022-12-13T20:37:31.850Z,1.49
2022-12-13T20:39:59.638Z,1.50
2022-12-13T20:42:26.375Z,1.56
2022-12-13T20:44:53.085Z,1.67
2022-12-13T20:47:19.851Z,1.80
2022-12-13T20:49:48.390Z,1.93
2022-12-13T20:52:17.074Z,2.03
2022-12-13T20:54:43.725Z,2.10
2022-12-13T20:57:10.327Z,2.18
2022-12-13T20:59:37.717Z,2.25
2022-12-13T21:02:04.555Z,2.31
2022-12-13T21:04:31.317Z,2.38
2022-12-13T21:06:58.352Z,2.43
2022-12-13T21:09:24.927Z,2.45
2022-12-13T21:11:51.507Z,2.49
2022-12-13T21:14:23.133Z,2.50
2022-12-13T21:16:58.862Z,2.53
2022-12-13T21:19:39.440Z,2.55
2022-12-13T21:22:06.868Z,2.58
2022-12-13T21:24:33.531Z,2.58
2022-12-13T21:27:00.463Z,2.59
2022-12-13T21:29:27.051Z,2.60
2022-12-13T21:31:54.778Z,2.63
2022-12-13T21:34:22.431Z,2.66
2022-12-13T21:36:52.285Z,2.70
2022-12-13T21:39:28.179Z,2.72
2022-12-13T21:41:55.214Z,2.73
2022-12-13T21:44:22.932Z,2.75
2022-12-13T21:49:36.514Z,2.80
2022-12-13T21:52:03.391Z,2.82
2022-12-13T21:54:30.340Z,2.84
2022-12-13T21:57:15.350Z,2.80
2022-12-13T21:59:41.987Z,2.80
2022-12-13T22:02:16.369Z,2.81
2022-12-13T22:04:50.678Z,2.82
2022-12-13T22:07:24.706Z,2.84
2022-12-13T22:09:53.257Z,2.86
2022-12-13T22:12:32.064Z,2.86
2022-12-13T22:14:58.831Z,2.87
2022-12-13T22:17:34.296Z,2.86
2022-12-13T22:20:03.335Z,2.87
2022-12-13T22:22:30.982Z,2.87
2022-12-13T22:24:58.045Z,2.87
2022-12-13T22:27:25.727Z,2.88
2022-12-13T22:29:57.113Z,2.87
2022-12-13T22:32:28.890Z,2.87
2022-12-13T22:34:55.910Z,2.86
2022-12-13T22:37:23.201Z,2.84
2022-12-13T22:39:49.970Z,2.82
2022-12-13T22:42:16.663Z,2.79
2022-12-13T22:44:43.476Z,2.75
2022-12-13T22:47:10.132Z,2.73
2022-12-13T22:49:36.760Z,2.76
2022-12-13T22:52:03.512Z,2.77
2022-12-13T22:54:30.321Z,2.75
2022-12-13T22:56:56.986Z,2.71
2022-12-13T22:59:23.688Z,2.67
2022-12-13T23:01:50.602Z,2.62
2022-12-13T23:04:18.263Z,2.56
2022-12-13T23:06:45.402Z,2.52
2022-12-13T23:09:13.837Z,2.49
2022-12-13T23:11:59.041Z,2.51
2022-12-13T23:14:28.376Z,2.51
2022-12-13T23:16:55.295Z,2.46
2022-12-13T23:22:09.083Z,2.43
2022-12-13T23:24:35.809Z,2.42
2022-12-13T23:27:02.585Z,2.38
2022-12-13T23:29:29.312Z,2.33
2022-12-13T23:31:55.954Z,2.31
2022-12-13T23:34:22.632Z,2.32
2022-12-13T23:36:50.358Z,2.31
2022-12-13T23:39:16.989Z,2.34
2022-12-13T23:41:43.740Z,2.36
2022-12-13T23:44:10.478Z,2.37
2022-12-13T23:46:37.170Z,2.37
2022-12-13T23:49:05.737Z,2.36
2022-12-13T23:51:33.908Z,2.39
2022-12-13T23:54:00.599Z,2.41
2022-12-13T23:56:27.350Z,2.38
2022-12-13T23:58:54.361Z,2.36
